Time;durP1;ratioP1;P1;durP2;ratioP2;P2;SDS_P1;SDS_P2;PMS_P1;PMS_P2;Temp;Humidity;BMP_temperature;BMP_pressure;BME280_temperature;BME280_humidity;BME280_pressure;Samples;Min_cycle;Max_cycle;Signal;HPM_P1;HPM_P2
2022/08/15 00:00:45;;;;;;;9.85;7.47;;;20.80;99.90;;;;;;5072870;28;20517;-68
2022/08/15 00:03:29;;;;;;;10.43;7.32;;;20.70;99.90;;;;;;5074226;28;20105;-67
2022/08/15 00:05:58;;;;;;;13.65;7.57;;;20.90;99.90;;;;;;5073275;28;20040;-67
2022/08/15 00:08:26;;;;;;;8.93;8.00;;;20.90;99.90;;;;;;5073621;28;20064;-67
2022/08/15 00:10:54;;;;;;;10.07;7.85;;;20.70;99.90;;;;;;5072791;28;20063;-70
2022/08/15 00:13:24;;;;;;;8.50;7.65;;;20.60;99.90;;;;;;5072772;28;20052;-67
2022/08/15 00:15:51;;;;;;;9.77;7.43;;;20.60;99.90;;;;;;5073200;28;20048;-67
2022/08/15 00:18:18;;;;;;;7.47;6.65;;;20.40;99.90;;;;;;5079082;28;20043;-67
2022/08/15 00:20:44;;;;;;;9.18;7.32;;;20.50;99.90;;;;;;5094292;28;20040;-67
2022/08/15 00:23:13;;;;;;;9.55;7.32;;;20.70;99.90;;;;;;5090479;28;20448;-68
2022/08/15 00:25:40;;;;;;;9.20;8.23;;;20.40;99.90;;;;;;5073416;28;20036;-67
2022/08/15 00:28:07;;;;;;;9.65;7.45;;;20.50;99.90;;;;;;5078237;28;20032;-67
2022/08/15 00:30:34;;;;;;;9.00;7.68;;;20.50;99.90;;;;;;5082809;28;20059;-67
2022/08/15 00:33:00;;;;;;;7.85;7.05;;;20.70;99.90;;;;;;5076417;28;20398;-67
2022/08/15 00:35:39;;;;;;;9.40;7.90;;;20.70;99.90;;;;;;5084262;28;20039;-67
2022/08/15 00:38:17;;;;;;;11.93;8.18;;;20.60;99.90;;;;;;5073417;28;20056;-67
2022/08/15 00:43:33;;;;;;;12.63;8.27;;;20.40;99.90;;;;;;5072304;28;20048;-67
2022/08/15 00:45:59;;;;;;;10.00;7.45;;;20.40;99.90;;;;;;5077567;28;20047;-68
2022/08/15 00:48:43;;;;;;;10.18;7.82;;;20.30;99.90;;;;;;5076345;28;20441;-67
2022/08/15 00:51:22;;;;;;;9.30;8.27;;;20.30;99.90;;;;;;5073235;28;20032;-67
2022/08/15 00:54:15;;;;;;;9.13;8.10;;;22.20;99.90;;;;;;5074004;28;20758;-67
2022/08/15 00:56:48;;;;;;;11.20;8.73;;;20.60;99.90;;;;;;5071710;28;20399;-67
2022/08/15 00:59:17;;;;;;;8.65;6.90;;;20.70;99.90;;;;;;5073034;28;20135;-68
2022/08/15 01:01:44;;;;;;;8.95;8.05;;;21.60;99.90;;;;;;5072043;28;20084;-69
2022/08/15 01:04:13;;;;;;;9.55;7.15;;;20.30;99.90;;;;;;5072047;28;20502;-67
2022/08/15 01:06:39;;;;;;;8.68;7.47;;;20.20;99.90;;;;;;5071979;28;20503;-67
2022/08/15 01:09:07;;;;;;;11.77;8.07;;;20.20;99.90;;;;;;5073027;28;20074;-68
2022/08/15 01:11:44;;;;;;;9.23;8.25;;;19.80;99.90;;;;;;5072787;28;20044;-67
2022/08/15 01:14:10;;;;;;;9.20;8.13;;;20.10;99.90;;;;;;5071609;28;20098;-67
2022/08/15 01:16:39;;;;;;;9.18;7.43;;;20.10;99.90;;;;;;5073025;28;20040;-67
2022/08/15 01:19:15;;;;;;;8.68;7.78;;;20.00;99.90;;;;;;5071583;28;20036;-67
2022/08/15 01:22:03;;;;;;;10.77;8.20;;;20.00;99.90;;;;;;5071029;28;20123;-68
2022/08/15 01:24:52;;;;;;;11.38;8.95;;;20.10;99.90;;;;;;5072605;28;20042;-67
2022/08/15 01:27:21;;;;;;;12.45;9.40;;;20.10;99.90;;;;;;5071830;28;20044;-67
2022/08/15 01:29:49;;;;;;;10.82;8.18;;;19.90;99.90;;;;;;5072789;28;20432;-67
2022/08/15 01:32:15;;;;;;;13.20;9.75;;;19.80;99.90;;;;;;5083964;28;20054;-68
2022/08/15 01:34:41;;;;;;;11.93;9.35;;;19.90;99.90;;;;;;5078584;28;20032;-67
2022/08/15 01:37:07;;;;;;;10.40;9.23;;;19.60;99.90;;;;;;5082112;28;20037;-67
2022/08/15 01:39:57;;;;;;;12.00;10.43;;;19.70;99.90;;;;;;5071388;28;20041;-67
2022/08/15 01:42:34;;;;;;;13.13;9.77;;;19.80;99.90;;;;;;5071411;28;20044;-67
2022/08/15 01:45:08;;;;;;;15.05;10.45;;;19.90;99.90;;;;;;5072432;28;20066;-67
2022/08/15 01:47:48;;;;;;;11.68;9.90;;;19.90;99.90;;;;;;5075787;28;20124;-67
2022/08/15 01:50:42;;;;;;;11.65;9.95;;;19.90;99.90;;;;;;5071550;28;20045;-67
2022/08/15 01:53:24;;;;;;;12.35;9.85;;;19.80;99.90;;;;;;5070840;28;20415;-67
2022/08/15 01:55:52;;;;;;;12.13;9.43;;;19.60;99.90;;;;;;5071387;28;20055;-67
2022/08/15 01:58:18;;;;;;;12.10;9.82;;;19.70;99.90;;;;;;5072294;28;20048;-67
2022/08/15 02:00:54;;;;;;;14.73;10.50;;;19.60;99.90;;;;;;5072343;28;20407;-67
2022/08/15 02:03:20;;;;;;;12.27;9.40;;;19.90;99.90;;;;;;5071036;28;20111;-67
2022/08/15 02:05:46;;;;;;;12.82;9.43;;;19.60;99.90;;;;;;5072174;28;20032;-68
2022/08/15 02:08:12;;;;;;;11.32;9.05;;;19.60;99.90;;;;;;5070772;28;20044;-67
2022/08/15 02:10:43;;;;;;;13.43;9.65;;;19.60;99.90;;;;;;5072013;28;20111;-67
2022/08/15 02:13:09;;;;;;;15.68;10.27;;;19.60;99.90;;;;;;5072327;28;20044;-67
2022/08/15 02:15:35;;;;;;;15.88;10.52;;;19.80;99.90;;;;;;5072280;28;20036;-67
2022/08/15 02:18:00;;;;;;;15.65;11.60;;;19.70;99.90;;;;;;5071911;28;20079;-67
2022/08/15 02:20:26;;;;;;;16.65;11.20;;;20.60;99.90;;;;;;5070541;28;20052;-67
2022/08/15 02:22:55;;;;;;;11.52;10.32;;;19.60;99.90;;;;;;5071834;28;20048;-67
2022/08/15 02:25:21;;;;;;;13.60;10.32;;;19.90;99.90;;;;;;5072279;28;20492;-67
2022/08/15 02:27:49;;;;;;;11.00;9.65;;;19.90;99.90;;;;;;5070959;28;20064;-67
2022/08/15 02:30:16;;;;;;;12.40;10.05;;;21.20;99.90;;;;;;5072010;28;20506;-67
2022/08/15 02:32:44;;;;;;;12.75;10.20;;;19.70;99.90;;;;;;5075493;28;20120;-67
2022/08/15 02:35:12;;;;;;;11.68;10.38;;;19.80;99.90;;;;;;5087846;28;20115;-67
2022/08/15 02:37:38;;;;;;;11.52;10.32;;;19.90;99.90;;;;;;5074842;28;20131;-67
2022/08/15 02:40:09;;;;;;;11.65;9.38;;;19.90;99.90;;;;;;5074866;28;20124;-67
2022/08/15 02:42:36;;;;;;;13.93;10.18;;;20.00;99.90;;;;;;5076142;28;20127;-67
2022/08/15 02:45:05;;;;;;;12.23;9.93;;;20.30;99.90;;;;;;5074545;28;20528;-67
2022/08/15 02:47:34;;;;;;;11.50;9.70;;;20.40;99.90;;;;;;5080947;28;20047;-67
2022/08/15 02:50:01;;;;;;;10.88;9.35;;;20.60;99.90;;;;;;5075733;28;20398;-67
2022/08/15 02:52:27;;;;;;;13.15;10.80;;;20.40;99.90;;;;;;5075744;28;20072;-67
2022/08/15 02:54:53;;;;;;;10.98;9.68;;;20.10;99.90;;;;;;5075922;28;20072;-67
2022/08/15 02:57:19;;;;;;;10.98;9.75;;;20.20;99.90;;;;;;5074157;28;20224;-67
2022/08/15 02:59:46;;;;;;;10.77;8.57;;;20.30;99.90;;;;;;5073955;28;20575;-68
2022/08/15 03:02:12;;;;;;;10.35;8.18;;;20.50;99.90;;;;;;5074178;28;20072;-67
2022/08/15 03:04:38;;;;;;;12.57;8.93;;;20.30;99.90;;;;;;5074649;28;20082;-67
2022/08/15 03:07:04;;;;;;;12.32;9.15;;;20.00;99.90;;;;;;5074025;28;20040;-67
2022/08/15 03:09:29;;;;;;;9.88;8.80;;;20.30;99.90;;;;;;5074126;28;20055;-67
2022/08/15 03:11:55;;;;;;;11.13;9.85;;;20.20;99.90;;;;;;5075088;28;20103;-67
2022/08/15 03:14:22;;;;;;;10.18;8.75;;;20.00;99.90;;;;;;5073891;28;20055;-67
2022/08/15 03:16:49;;;;;;;10.20;8.23;;;20.20;99.90;;;;;;5075085;28;20127;-67
2022/08/15 03:19:25;;;;;;;10.45;8.18;;;20.00;99.90;;;;;;5086730;28;20080;-67
2022/08/15 03:21:51;;;;;;;11.48;9.07;;;20.00;99.90;;;;;;5074983;28;20032;-67
2022/08/15 03:24:19;;;;;;;15.90;9.73;;;19.90;99.90;;;;;;5075275;28;20116;-67
2022/08/15 03:26:46;;;;;;;11.05;9.45;;;19.80;99.90;;;;;;5075109;28;20096;-68
2022/08/15 03:29:16;;;;;;;11.25;9.98;;;19.70;99.90;;;;;;5074903;28;20504;-67
2022/08/15 03:31:47;;;;;;;14.95;10.68;;;19.90;99.90;;;;;;5075297;28;20044;-67
2022/08/15 03:34:15;;;;;;;10.65;8.73;;;19.90;99.90;;;;;;5073820;28;20044;-67
2022/08/15 03:36:44;;;;;;;11.32;9.90;;;19.70;99.90;;;;;;5073705;28;20040;-67
2022/08/15 03:39:10;;;;;;;11.63;9.18;;;19.70;99.90;;;;;;5074788;28;20047;-67
2022/08/15 03:41:36;;;;;;;12.10;10.15;;;19.70;99.90;;;;;;5073444;28;20032;-67
2022/08/15 03:44:02;;;;;;;12.60;10.23;;;19.60;99.90;;;;;;5072638;28;20401;-67
2022/08/15 03:46:27;;;;;;;11.32;9.55;;;19.60;99.90;;;;;;5079998;28;20036;-68
2022/08/15 03:48:56;;;;;;;10.45;9.20;;;19.70;99.90;;;;;;5073684;28;20036;-67
2022/08/15 03:51:23;;;;;;;12.48;8.90;;;19.60;99.90;;;;;;5073309;28;20040;-67
2022/08/15 03:53:53;;;;;;;10.93;9.68;;;19.40;99.90;;;;;;5074591;28;20150;-67
2022/08/15 03:56:24;;;;;;;10.50;9.40;;;19.40;99.90;;;;;;5087391;28;20048;-67
2022/08/15 03:58:50;;;;;;;11.05;9.38;;;19.50;99.90;;;;;;5074436;28;20040;-67
2022/08/15 04:01:21;;;;;;;10.82;9.63;;;19.50;99.90;;;;;;5074262;28;20521;-67
2022/08/15 04:03:49;;;;;;;11.02;9.93;;;19.40;99.90;;;;;;5074811;28;20037;-67
2022/08/15 04:06:19;;;;;;;15.02;10.10;;;19.30;99.90;;;;;;5073226;28;20076;-68
2022/08/15 04:08:46;;;;;;;14.95;10.65;;;19.40;99.90;;;;;;5074196;28;20516;-67
2022/08/15 04:11:13;;;;;;;12.23;9.85;;;19.20;99.90;;;;;;5074162;28;20044;-67
2022/08/15 04:13:39;;;;;;;13.18;9.98;;;19.30;99.90;;;;;;5072988;28;20033;-67
2022/08/15 04:16:06;;;;;;;13.88;10.35;;;19.00;99.90;;;;;;5072845;28;20040;-67
2022/08/15 04:18:32;;;;;;;11.10;9.48;;;19.90;99.90;;;;;;5074316;28;20041;-67
2022/08/15 04:21:01;;;;;;;12.27;9.73;;;19.40;99.90;;;;;;5073866;28;20051;-67
2022/08/15 04:23:27;;;;;;;13.32;9.77;;;18.90;99.90;;;;;;5072812;28;20044;-67
2022/08/15 04:25:53;;;;;;;12.27;10.48;;;19.00;99.90;;;;;;5074067;28;20060;-67
2022/08/15 04:28:20;;;;;;;11.75;10.23;;;19.00;99.90;;;;;;5072902;28;20072;-67
2022/08/15 04:30:48;;;;;;;17.17;11.63;;;19.10;99.90;;;;;;5072469;28;20048;-67
2022/08/15 04:33:18;;;;;;;14.80;11.77;;;19.20;99.90;;;;;;5073960;28;20441;-67
2022/08/15 04:35:50;;;;;;;12.68;11.38;;;19.20;99.90;;;;;;5072882;28;20076;-67
2022/08/15 04:38:16;;;;;;;12.93;10.75;;;19.10;99.90;;;;;;5073740;28;20048;-67
2022/08/15 04:40:43;;;;;;;14.77;11.73;;;19.10;99.90;;;;;;5073652;28;20044;-67
2022/08/15 04:43:09;;;;;;;13.95;11.88;;;19.00;99.90;;;;;;5073388;28;20041;-67
2022/08/15 04:45:37;;;;;;;16.23;13.25;;;19.20;99.90;;;;;;5074300;28;20044;-67
2022/08/15 04:48:03;;;;;;;13.95;11.73;;;18.90;99.90;;;;;;5075542;28;20056;-67
2022/08/15 04:50:35;;;;;;;12.93;11.02;;;19.10;99.90;;;;;;5072505;28;20178;-67
2022/08/15 04:53:01;;;;;;;13.40;11.40;;;19.40;99.90;;;;;;5073391;28;20486;-67
2022/08/15 04:55:28;;;;;;;14.20;11.68;;;19.20;99.90;;;;;;5073476;28;20032;-67
2022/08/15 04:57:55;;;;;;;13.43;10.20;;;19.30;99.90;;;;;;5073039;28;20052;-67
2022/08/15 05:00:23;;;;;;;11.82;10.50;;;19.40;99.90;;;;;;5087438;28;20049;-67
2022/08/15 05:03:02;;;;;;;15.65;11.50;;;19.20;99.90;;;;;;5072091;28;20041;-67
2022/08/15 05:05:30;;;;;;;12.05;10.70;;;19.50;99.90;;;;;;5072366;28;20066;-67
2022/08/15 05:07:55;;;;;;;11.75;9.45;;;19.50;99.90;;;;;;5073186;28;20555;-67
2022/08/15 05:10:21;;;;;;;13.30;11.88;;;19.40;99.90;;;;;;5072880;28;20040;-67
2022/08/15 05:12:47;;;;;;;13.75;12.23;;;19.10;99.90;;;;;;5073217;28;20044;-67
2022/08/15 05:15:15;;;;;;;19.83;13.45;;;19.20;99.90;;;;;;5073035;28;20043;-67
2022/08/15 05:17:40;;;;;;;17.33;13.90;;;19.30;99.90;;;;;;5073018;28;20040;-67
2022/08/15 05:20:07;;;;;;;12.90;11.48;;;19.50;99.90;;;;;;5072759;28;20055;-67
2022/08/15 05:22:32;;;;;;;13.35;11.05;;;19.00;99.90;;;;;;5071667;28;20044;-67
2022/08/15 05:24:58;;;;;;;12.50;11.20;;;19.20;99.90;;;;;;5072722;28;20433;-67
2022/08/15 05:27:24;;;;;;;12.88;11.50;;;19.40;99.90;;;;;;5071283;28;20059;-67
2022/08/15 05:29:51;;;;;;;12.18;10.65;;;19.20;99.90;;;;;;5073003;28;20032;-67
2022/08/15 05:32:18;;;;;;;16.55;12.60;;;19.40;99.90;;;;;;5072683;28;20044;-67
2022/08/15 05:34:43;;;;;;;14.13;12.38;;;19.70;99.90;;;;;;5072701;28;20064;-67
2022/08/15 05:37:11;;;;;;;18.77;11.40;;;20.50;99.90;;;;;;5072659;28;20129;-67
2022/08/15 05:39:38;;;;;;;13.88;11.55;;;19.80;99.90;;;;;;5072296;28;20105;-67
2022/08/15 05:42:16;;;;;;;14.63;12.05;;;19.90;99.90;;;;;;5054502;28;20044;-67
2022/08/15 05:45:02;;;;;;;15.30;11.82;;;19.80;99.90;;;;;;5072603;28;20075;-67
2022/08/15 05:47:35;;;;;;;17.52;13.85;;;19.80;99.90;;;;;;5077239;28;20083;-67
2022/08/15 05:50:27;;;;;;;17.42;13.20;;;20.10;99.90;;;;;;5072463;28;20040;-67
2022/08/15 05:52:58;;;;;;;14.52;12.23;;;20.20;99.90;;;;;;5071185;28;20076;-67
2022/08/15 05:55:44;;;;;;;16.05;12.43;;;20.50;99.90;;;;;;5090256;28;20051;-67
2022/08/15 05:58:17;;;;;;;13.95;11.95;;;20.40;99.90;;;;;;5075106;28;20449;-67
2022/08/15 06:01:01;;;;;;;15.27;11.55;;;20.60;99.90;;;;;;5072530;28;20051;-67
2022/08/15 06:03:28;;;;;;;15.93;11.52;;;20.50;99.90;;;;;;5072683;28;20033;-67
2022/08/15 06:06:02;;;;;;;12.48;10.50;;;20.60;99.90;;;;;;5072121;28;20032;-67
2022/08/15 06:08:29;;;;;;;;;;;20.60;99.90;;;;;;5071783;28;20421;-67
2022/08/15 06:11:04;;;;;;;12.30;10.18;;;21.00;99.90;;;;;;5072071;28;19923;-67
2022/08/15 06:13:58;;;;;;;13.20;11.80;;;21.60;99.90;;;;;;5070885;28;20052;-69
2022/08/15 06:16:36;;;;;;;14.45;11.38;;;21.70;99.90;;;;;;5070960;28;20048;-67
2022/08/15 06:19:06;;;;;;;11.52;9.80;;;22.40;99.90;;;;;;5072125;28;20025;-67
2022/08/15 06:21:48;;;;;;;13.02;10.30;;;22.90;99.90;;;;;;5070710;28;20414;-67
2022/08/15 06:24:43;;;;;;;15.35;10.85;;;23.30;99.90;;;;;;5072443;28;20110;-67
2022/08/15 06:27:12;;;;;;;;;;;23.50;99.90;;;;;;5072497;28;20115;-67
2022/08/15 06:30:06;;;;;;;13.38;9.75;;;23.60;99.90;;;;;;5071947;28;19926;-67
2022/08/15 06:32:53;;;;;;;10.07;8.25;;;24.30;99.90;;;;;;5070544;28;20123;-68
2022/08/15 06:35:42;;;;;;;11.32;8.13;;;26.20;99.90;;;;;;5081909;28;20501;-67
2022/08/15 06:38:36;;;;;;;15.60;9.20;;;25.50;99.90;;;;;;5073326;28;20102;-67
2022/08/15 06:41:27;;;;;;;10.45;8.38;;;26.10;99.90;;;;;;5070527;28;20044;-68
2022/08/15 06:43:56;;;;;;;11.35;9.43;;;25.90;99.90;;;;;;5063869;28;20056;-67
2022/08/15 06:46:22;;;;;;;11.90;9.38;;;26.90;99.90;;;;;;5076891;28;20044;-67
2022/08/15 06:48:48;;;;;;;11.25;9.18;;;25.40;99.90;;;;;;5071758;28;20221;-67
2022/08/15 06:51:15;;;;;;;12.32;8.15;;;25.10;99.90;;;;;;5071741;28;20075;-68
2022/08/15 06:53:58;;;;;;;10.13;8.10;;;25.10;99.90;;;;;;5070658;28;20041;-67
2022/08/15 06:56:28;;;;;;;11.40;8.32;;;25.00;99.90;;;;;;5071858;28;20089;-67
2022/08/15 06:59:05;;;;;;;8.77;7.88;;;25.10;99.90;;;;;;5071504;28;20048;-67
2022/08/15 07:01:40;;;;;;;10.57;7.78;;;24.90;99.90;;;;;;5071666;28;20068;-67
2022/08/15 07:04:25;;;;;;;;;;;25.20;99.90;;;;;;5072356;28;20028;-67
2022/08/15 07:07:15;;;;;;;11.00;7.93;;;24.80;99.90;;;;;;5070509;28;19917;-67
2022/08/15 07:10:00;;;;;;;11.02;8.88;;;24.70;99.90;;;;;;5063866;28;20602;-67
2022/08/15 07:12:52;;;;;;;12.13;8.25;;;24.30;99.90;;;;;;5070376;28;20041;-67
2022/08/15 07:15:58;;;;;;;10.77;8.40;;;24.20;99.90;;;;;;5086254;28;20056;-67
2022/08/15 07:18:35;;;;;;;9.82;8.00;;;24.10;99.90;;;;;;5070849;28;20040;-67
2022/08/15 07:21:09;;;;;;;10.65;8.88;;;25.30;99.90;;;;;;5073930;28;20036;-67
2022/08/15 07:23:38;;;;;;;10.70;8.27;;;23.80;99.90;;;;;;5073989;28;20041;-67
2022/08/15 07:26:11;;;;;;;10.82;8.38;;;24.10;99.90;;;;;;5073642;28;20083;-68
2022/08/15 07:28:49;;;;;;;12.75;8.82;;;23.80;99.90;;;;;;5075003;28;20091;-67
2022/08/15 07:31:22;;;;;;;11.40;8.40;;;23.70;99.90;;;;;;5073649;28;20040;-67
2022/08/15 07:33:50;;;;;;;13.80;8.15;;;25.20;99.90;;;;;;5075291;28;20406;-67
2022/08/15 07:36:23;;;;;;;10.65;8.20;;;23.70;99.90;;;;;;5074772;28;20483;-67
2022/08/15 07:38:50;;;;;;;11.75;8.95;;;23.50;99.90;;;;;;5073557;28;20040;-67
2022/08/15 07:41:24;;;;;;;10.93;8.65;;;23.40;99.90;;;;;;5074825;28;20041;-67
2022/08/15 07:44:17;;;;;;;9.20;7.78;;;23.50;99.90;;;;;;5074957;28;20036;-67
2022/08/15 07:46:55;;;;;;;11.77;8.77;;;23.50;99.90;;;;;;5084680;28;20487;-67
2022/08/15 07:49:25;;;;;;;9.70;8.52;;;23.70;99.90;;;;;;5074644;28;20053;-67
2022/08/15 07:52:06;;;;;;;9.52;7.85;;;24.10;99.90;;;;;;5073366;28;20043;-67
2022/08/15 07:54:46;;;;;;;9.63;8.20;;;24.90;99.90;;;;;;5074816;28;20508;-67
2022/08/15 07:57:33;;;;;;;11.50;8.73;;;23.80;99.90;;;;;;5079636;28;20032;-67
2022/08/15 08:00:25;;;;;;;14.57;9.00;;;23.60;99.90;;;;;;5073671;28;20528;-67
2022/08/15 08:03:20;;;;;;;10.88;8.02;;;23.80;99.90;;;;;;5072799;28;20066;-67
2022/08/15 08:06:05;;;;;;;10.52;8.48;;;24.10;99.90;;;;;;5072656;28;20032;-67
2022/08/15 08:08:44;;;;;;;17.88;9.45;;;23.90;99.90;;;;;;5078649;28;20398;-67
2022/08/15 08:11:27;;;;;;;13.57;9.73;;;24.10;99.90;;;;;;5085994;28;20036;-67
2022/08/15 08:14:08;;;;;;;11.20;9.10;;;24.10;99.90;;;;;;5077448;28;20493;-67
2022/08/15 08:16:48;;;;;;;13.88;9.00;;;24.60;99.90;;;;;;5078325;28;20045;-67
2022/08/15 08:19:13;;;;;;;10.80;8.68;;;24.40;99.90;;;;;;5074301;28;20041;-67
2022/08/15 08:22:03;;;;;;;10.63;7.82;;;24.60;99.90;;;;;;5073886;28;20393;-67
2022/08/15 08:24:37;;;;;;;12.80;8.55;;;24.50;99.90;;;;;;5073962;28;20123;-67
2022/08/15 08:27:15;;;;;;;9.95;7.47;;;24.70;99.90;;;;;;5073726;28;20075;-67
2022/08/15 08:30:02;;;;;;;9.75;7.20;;;25.00;99.90;;;;;;5087793;28;20402;-67
2022/08/15 08:32:43;;;;;;;10.15;7.65;;;24.80;99.90;;;;;;5074120;28;20055;-68
2022/08/15 08:35:38;;;;;;;14.60;9.48;;;25.10;99.90;;;;;;5085632;28;20108;-67
2022/08/15 08:38:26;;;;;;;9.98;8.93;;;26.60;99.90;;;;;;5074014;28;20041;-67
2022/08/15 08:41:25;;;;;;;10.57;8.20;;;25.40;99.90;;;;;;5076066;28;20044;-67
2022/08/15 08:44:15;;;;;;;10.73;8.65;;;25.40;99.90;;;;;;5072251;28;20044;-68
2022/08/15 08:46:55;;;;;;;9.13;8.23;;;25.70;99.90;;;;;;5077527;28;20048;-67
2022/08/15 08:49:47;;;;;;;12.13;8.98;;;25.60;99.90;;;;;;5072045;28;20118;-68
2022/08/15 08:52:37;;;;;;;9.93;8.27;;;26.10;99.90;;;;;;5073148;28;20044;-68
2022/08/15 08:55:16;;;;;;;10.32;7.20;;;26.10;99.90;;;;;;5064815;28;20048;-67
2022/08/15 08:57:47;;;;;;;9.85;8.80;;;26.10;99.90;;;;;;5077364;28;20052;-67
2022/08/15 09:00:22;;;;;;;12.60;9.07;;;26.20;99.90;;;;;;5072330;28;20048;-67
2022/08/15 09:03:14;;;;;;;10.48;7.88;;;26.20;99.90;;;;;;5074504;28;20572;-67
2022/08/15 09:05:53;;;;;;;9.90;8.25;;;26.30;99.90;;;;;;5072882;28;20048;-67
2022/08/15 09:08:24;;;;;;;11.90;7.97;;;26.10;99.90;;;;;;5072522;28;20060;-67
2022/08/15 09:10:54;;;;;;;8.43;7.20;;;26.70;99.90;;;;;;5072912;28;20044;-67
2022/08/15 09:13:34;;;;;;;10.07;8.40;;;26.10;99.90;;;;;;5075226;28;20048;-67
2022/08/15 09:16:19;;;;;;;11.45;9.18;;;26.10;99.90;;;;;;5075674;28;20494;-67
2022/08/15 09:19:36;;;;;;;9.27;8.35;;;26.20;99.90;;;;;;5072394;28;20112;-67
2022/08/15 09:22:02;;;;;;;9.52;8.25;;;26.40;99.90;;;;;;5045126;28;20037;-67
2022/08/15 09:24:29;;;;;;;9.57;8.50;;;26.50;99.90;;;;;;5075271;28;20131;-67
2022/08/15 09:27:12;;;;;;;10.23;8.15;;;26.60;99.90;;;;;;5080689;28;20036;-68
2022/08/15 09:29:45;;;;;;;9.32;8.02;;;26.80;99.90;;;;;;5071720;28;20052;-67
2022/08/15 09:32:36;;;;;;;11.48;7.50;;;26.70;99.90;;;;;;5074070;28;20513;-67
2022/08/15 09:35:23;;;;;;;9.00;7.72;;;27.20;99.90;;;;;;5072456;28;20040;-67
2022/08/15 09:38:04;;;;;;;8.88;7.97;;;27.20;99.90;;;;;;5074088;28;20112;-67
2022/08/15 09:40:32;;;;;;;9.63;7.90;;;27.20;99.90;;;;;;5070786;28;20045;-67
2022/08/15 09:43:28;;;;;;;9.52;7.93;;;27.00;99.90;;;;;;5071620;28;20036;-68
2022/08/15 09:46:30;;;;;;;9.43;7.38;;;27.00;99.90;;;;;;5073616;28;20495;-68
2022/08/15 09:49:13;;;;;;;8.98;8.07;;;27.00;99.90;;;;;;5071998;28;20032;-67
2022/08/15 09:51:57;;;;;;;10.25;8.63;;;27.00;99.90;;;;;;5070779;28;20043;-67
2022/08/15 09:54:25;;;;;;;12.68;9.05;;;26.80;99.90;;;;;;5075832;28;20080;-67
2022/08/15 09:57:11;;;;;;;9.88;8.57;;;26.90;99.90;;;;;;5071657;28;20062;-67
2022/08/15 09:59:37;;;;;;;11.25;8.32;;;28.50;99.90;;;;;;5064808;28;20053;-67
2022/08/15 10:02:21;;;;;;;14.27;9.63;;;26.70;99.90;;;;;;5074767;28;20037;-67
2022/08/15 10:04:50;;;;;;;12.90;10.18;;;27.20;99.90;;;;;;5076953;28;20417;-68
2022/08/15 10:07:15;;;;;;;12.77;10.00;;;28.00;99.90;;;;;;5076050;28;20036;-67
2022/08/15 10:10:09;;;;;;;12.70;10.07;;;26.60;99.90;;;;;;5070298;28;20101;-67
2022/08/15 10:12:37;;;;;;;12.23;9.25;;;27.80;99.90;;;;;;5072136;28;20056;-67
2022/08/15 10:15:23;;;;;;;12.43;10.10;;;26.00;99.90;;;;;;5071722;28;20037;-67
2022/08/15 10:17:48;;;;;;;11.70;10.35;;;26.10;99.90;;;;;;5070960;28;20425;-67
2022/08/15 10:20:14;;;;;;;12.20;10.20;;;25.80;99.90;;;;;;5071579;28;20041;-65
2022/08/15 10:23:07;;;;;;;12.60;11.00;;;25.80;99.90;;;;;;5071709;28;20075;-67
2022/08/15 10:25:38;;;;;;;15.45;10.10;;;25.80;99.90;;;;;;5053622;28;20043;-67
2022/08/15 10:28:11;;;;;;;12.55;9.48;;;25.50;99.90;;;;;;5084769;28;20083;-68
2022/08/15 10:30:54;;;;;;;14.65;12.10;;;25.30;99.90;;;;;;5077295;28;20119;-68
2022/08/15 10:33:33;;;;;;;13.75;11.32;;;25.30;99.90;;;;;;5072233;28;20044;-68
2022/08/15 10:36:13;;;;;;;13.32;9.75;;;25.20;99.90;;;;;;5071826;28;20098;-68
2022/08/15 10:38:46;;;;;;;8.95;6.88;;;26.20;99.90;;;;;;5069394;28;20069;-69
2022/08/15 10:41:34;;;;;;;8.23;7.25;;;24.90;99.90;;;;;;5070653;28;20044;-69
2022/08/15 10:44:20;;;;;;;11.18;7.60;;;24.50;99.90;;;;;;5069493;28;20049;-69
2022/08/15 10:47:04;;;;;;;5.72;5.13;;;24.40;99.90;;;;;;5083179;28;20036;-68
2022/08/15 10:50:03;;;;;;;8.70;5.72;;;24.20;99.90;;;;;;5085790;28;20065;-68
2022/08/15 10:52:45;;;;;;;10.27;5.07;;;24.10;99.90;;;;;;5072431;28;20533;-69
2022/08/15 10:55:26;;;;;;;8.20;4.95;;;25.40;99.90;;;;;;5074125;28;20040;-69
2022/08/15 10:57:55;;;;;;;7.15;5.28;;;23.40;99.90;;;;;;5075010;28;20055;-68
2022/08/15 11:00:42;;;;;;;13.05;6.15;;;23.50;99.90;;;;;;5088507;28;20052;-68
2022/08/15 11:03:18;;;;;;;9.23;6.00;;;23.30;99.90;;;;;;5078898;28;20548;-69
2022/08/15 11:05:57;;;;;;;8.35;6.60;;;23.10;99.90;;;;;;5074272;28;20375;-68
2022/08/15 11:08:24;;;;;;;8.43;6.80;;;23.20;99.90;;;;;;5074070;28;20087;-68
2022/08/15 11:10:50;;;;;;;7.70;6.63;;;23.30;99.90;;;;;;5077011;28;20145;-68
2022/08/15 11:13:20;;;;;;;7.70;6.57;;;23.10;99.90;;;;;;5079062;28;20048;-68
2022/08/15 11:15:56;;;;;;;8.75;5.95;;;23.30;99.90;;;;;;5075305;28;20045;-68
2022/08/15 11:18:33;;;;;;;11.02;8.02;;;24.80;99.90;;;;;;5073625;28;20048;-68
2022/08/15 11:21:24;;;;;;;12.15;10.05;;;23.40;99.90;;;;;;5073744;28;20055;-68
2022/08/15 11:23:54;;;;;;;15.65;13.45;;;23.40;99.90;;;;;;5073600;28;20068;-68
2022/08/15 11:26:27;;;;;;;18.23;14.18;;;23.40;99.90;;;;;;5073668;28;20470;-68
2022/08/15 11:29:22;;;;;;;17.45;15.38;;;23.20;99.90;;;;;;5073875;28;20084;-68
2022/08/15 11:31:58;;;;;;;20.20;15.57;;;23.40;99.90;;;;;;5084007;28;20032;-68
2022/08/15 11:34:32;;;;;;;18.88;15.43;;;23.40;99.90;;;;;;5093860;28;20049;-68
2022/08/15 11:37:09;;;;;;;17.73;15.80;;;23.40;99.90;;;;;;5085808;28;20036;-68
2022/08/15 11:39:40;;;;;;;16.65;14.07;;;23.60;99.90;;;;;;5077695;28;20069;-67
2022/08/15 11:42:08;;;;;;;16.83;12.35;;;23.60;99.90;;;;;;5085762;28;20075;-68
2022/08/15 11:44:45;;;;;;;11.77;10.57;;;23.70;99.90;;;;;;5089070;28;20043;-68
2022/08/15 11:47:14;;;;;;;14.50;11.07;;;23.70;99.90;;;;;;5088245;28;20107;-68
2022/08/15 11:50:03;;;;;;;10.73;9.25;;;23.80;99.90;;;;;;5079128;28;20036;-68
2022/08/15 11:52:35;;;;;;;9.18;7.30;;;24.70;99.90;;;;;;5094910;28;20046;-68
2022/08/15 11:55:29;;;;;;;8.65;6.63;;;23.70;99.90;;;;;;5079327;28;20043;-71
2022/08/15 11:58:10;;;;;;;8.57;7.05;;;24.00;99.90;;;;;;5079454;28;20049;-69
2022/08/15 12:00:43;;;;;;;9.50;6.25;;;24.10;99.90;;;;;;5073297;28;20053;-68
2022/08/15 12:03:20;;;;;;;9.38;6.45;;;24.30;99.90;;;;;;5088749;28;20043;-68
2022/08/15 12:05:47;;;;;;;8.57;7.05;;;24.70;99.90;;;;;;5082187;28;20135;-68
2022/08/15 12:08:20;;;;;;;7.60;6.80;;;24.20;99.90;;;;;;5093888;28;20089;-68
2022/08/15 12:10:46;;;;;;;9.55;7.10;;;24.60;99.90;;;;;;5081999;28;20438;-68
2022/08/15 12:13:16;;;;;;;8.77;7.88;;;24.50;99.90;;;;;;5079601;28;20049;-68
2022/08/15 12:15:43;;;;;;;10.30;8.52;;;26.60;99.90;;;;;;5072806;28;20043;-69
2022/08/15 12:18:20;;;;;;;13.55;10.35;;;24.90;99.90;;;;;;5073302;28;20096;-68
2022/08/15 12:20:59;;;;;;;14.80;11.98;;;26.40;99.90;;;;;;5073859;28;20044;-68
2022/08/15 12:23:36;;;;;;;16.20;13.15;;;25.00;99.90;;;;;;5077512;28;20432;-68
2022/08/15 12:26:08;;;;;;;12.70;10.82;;;25.30;99.90;;;;;;5074918;28;20040;-68
2022/08/15 12:28:35;;;;;;;15.70;10.38;;;26.70;99.90;;;;;;5083242;28;20114;-68
2022/08/15 12:31:04;;;;;;;12.70;10.45;;;25.40;99.90;;;;;;5076084;28;20043;-68
2022/08/15 12:33:31;;;;;;;11.32;9.77;;;25.40;99.90;;;;;;5073225;28;20364;-68
2022/08/15 12:35:58;;;;;;;8.65;7.75;;;25.40;99.90;;;;;;5086859;28;20036;-68
2022/08/15 12:38:23;;;;;;;11.50;7.75;;;25.70;99.90;;;;;;5091917;28;20040;-68
2022/08/15 12:40:50;;;;;;;8.93;7.93;;;25.70;99.90;;;;;;5085611;28;20045;-68
2022/08/15 12:43:17;;;;;;;10.93;6.93;;;25.80;99.90;;;;;;5072049;28;20490;-69
2022/08/15 12:45:43;;;;;;;12.07;7.15;;;25.50;99.90;;;;;;5074637;28;20041;-68
2022/08/15 12:48:23;;;;;;;12.25;10.38;;;27.30;99.90;;;;;;5073079;28;20276;-68
2022/08/15 12:50:49;;;;;;;12.30;9.23;;;27.50;99.90;;;;;;5070107;28;20051;-69
2022/08/15 12:53:15;;;;;;;12.45;10.30;;;26.70;99.90;;;;;;5069406;28;20394;-69
2022/08/15 12:55:42;;;;;;;11.02;9.00;;;25.80;99.90;;;;;;5069735;28;20041;-69
2022/08/15 12:58:09;;;;;;;11.43;9.27;;;25.50;99.90;;;;;;5068444;28;20055;-69
2022/08/15 13:00:36;;;;;;;14.20;9.55;;;25.60;99.90;;;;;;5068224;28;20114;-69
2022/08/15 13:03:23;;;;;;;12.27;8.10;;;25.70;99.90;;;;;;5070081;28;20040;-69
2022/08/15 13:06:01;;;;;;;8.35;6.00;;;25.70;99.90;;;;;;5069450;28;20036;-69
2022/08/15 13:08:27;;;;;;;7.05;5.53;;;26.70;99.90;;;;;;5068450;28;20040;-70
2022/08/15 13:10:53;;;;;;;7.97;5.55;;;26.00;99.90;;;;;;5068397;28;20036;-68
2022/08/15 13:13:19;;;;;;;7.38;6.05;;;27.80;99.90;;;;;;5069763;28;20456;-69
2022/08/15 13:15:46;;;;;;;9.00;5.35;;;26.20;99.90;;;;;;5069259;28;20062;-69